MMCP 090040Z 36005KT 7SM FEW070 27/25 A2995 RMK 8/030 HZY= 090040

MMCP 082340Z 00000KT 7SM FEW050 27/25 A2994 RMK SLP126 52007 953 8/100 HZY= 082340

MMCP 082243Z 07005KT 7SM FEW050 31/21 A2993 RMK 8/100= 082243

MMCP 082147Z 10008KT 7SM FEW040 FEW300 33/21 A2992 RMK 8/101= 082148

MMCP 082044Z 13015KT 7SM SCT040 SCT300 33/20 A2991 RMK SLP119 57030 951 8/101= 082045

MMCP 081941Z 12012KT 7SM SCT040 SCT300 32/21 A2993 RMK 8/101= 081942

MMCP 081843Z 12010KT 7SM FEW025 SCT260 32/21 A2996 RMK 8/101= 081843

MMCP 081741Z 14006KT 7SM FEW025 SCT260 31/22 A3001 RMK SLP149 57016 901 8/101= 081742

MMCP 081641Z 11006KT 6SM FEW018 SCT260 30/23 A3004 RMK 8/101= 081641

MMCP 081541Z 00000KT 6SM FEW018 SCT260 28/23 A3006 RMK 8/101= 081541

SPECI MMCP 081517Z 10006KT 6SM SCT018 SCT260 27/23 A3006 RMK 8/101= 081518

MMCP 081445Z 10006KT 3SM BR BKN008 25/23 A3005 RMK SLP165 5//// 904 8/400= 081446

MMCP 081353Z 00000KT 3/4SM BCFG VV005 23/23 A3004 RMK 8////= 081355

SPECI MMCP 081332Z 00000KT 1/2SM FG VV005 23/23 A3003 RMK 8////= 081333

MMCP 081304Z RTD 00000KT 1SM BCFG VV006 22/22 A3001 RMK 8//// RTS= 081305

MMCP 080042Z 33005KT 7SM SCT040 26/25 A2996 RMK 8/100= 080042

MMCP 072345Z 34005KT 7SM SCT040 26/25 A2995 RMK SLP129 52009 951 8/100= 072347

MMCP 072244Z 29008KT 7SM SCT020 27/25 A2993 RMK 8/100= 072244

MMCP 072144Z 10005KT 7SM SCT020 31/20 A2991 RMK 8/100= 072144

MMCP 072041Z 11008KT 7SM SCT020 32/21 A2992 RMK SLP120 57028 903 8/100= 072041

MMCP 071941Z 08008KT 7SM SCT020 32/22 A2993 RMK 8/100= 071941

MMCP 071845Z 10005KT 7SM SCT015 31/22 A2996 RMK 8/100= 071845

MMCP 071742Z 13005KT 7SM SCT015 32/23 A3000 RMK SLP148 57013 903 8/100= 071743

MMCP 071644Z 12006KT 7SM SCT015 30/23 A3004 RMK 8/100= 071645

MMCP 071541Z 11008KT 7SM SCT015 28/23 A3004 RMK 8/500= 071541

MMCP 071444Z 14005KT 7SM BKN010 25/23 A3004 RMK SLP161 5//// 955 8/600= 071445

MMCP 071345Z 00000KT 7SM SCT008 23/22 A3002 RMK 8/600= 071345

SPECI MMCP 071329Z 00000KT 4SM BKN008 23/22 A3001 RMK 8/600= 071330

MMCP 071306Z RTD 13004KT 1/2SM FG VV001 22/22 A3001 RMK 8//// RTS= 071307

MMCP 070040Z 34005KT 7SM FEW080 26/24 A2996 RMK 8/030 HZY= 070041

MMCP 062344Z 32005KT 7SM BKN050 27/24 A2995 RMK SLP130 52013 959 8/500 HZY= 062345

MMCP 062240Z 34005KT 7SM SCT050TCU 27/23 A2993 RMK 8/200 HZY= 062241

MMCP 062145Z 29006KT 7SM FEW050 31/23 A2991 RMK 8/100= 062145

MMCP 062042Z 10010KT 7SM FEW040 33/22 A2991 RMK SLP117 57028 980 8/100= 062043

MMCP 061946Z 08005KT 7SM FEW035 33/21 A2993 RMK 8/100= 061946

MMCP 061841Z 13005KT 7SM SKC 32/21 A2996= 061841

MMCP 061744Z 14006KT 7SM SKC 30/22 A2999 RMK SLP145 57021 959= 061745

MMCP 061641Z 15010KT 7SM SKC 28/21 A3003= 061641

MMCP 061541Z 09007KT 5SM SCT010 BKN015 24/22 A3005 RMK 8/400 HZY= 061542

SPECI MMCP 061503Z 14004KT 3SM HZ OVC007 22/22 A3006 RMK 8/6// BINOVC= 061504

MMCP 061444Z 14004KT 2SM BR OVC005 22/21 A3006 RMK SLP166 5//// 958 8/6// COND VRB= 061446

MMCP 061341Z 13005KT 3/16SM FG VV001 20/20 A3004 RMK 8//// COND VRB= 061342

MMCP 061250Z 15005KT 1/8SM FG VV001 20/19 A3001 RMK 8//// COND VRB RTS= 061251